Time;durP1;ratioP1;P1;durP2;ratioP2;P2;SDS_P1;SDS_P2;PMS_P1;PMS_P2;Temp;Humidity;BMP_temperature;BMP_pressure;BME280_temperature;BME280_humidity;BME280_pressure;Samples;Min_cycle;Max_cycle;Signal;HPM_P1;HPM_P2
2022/01/26 00:00:06;;;;;;;85.28;40.22;;;;;;;2.07;77.05;103268.81;5052726;28;20040;-56
2022/01/26 00:08:00;;;;;;;87.50;41.53;;;;;;;2.05;77.27;103274.44;5053084;28;20227;-52
2022/01/26 00:10:26;;;;;;;90.82;41.33;;;;;;;1.99;77.48;103273.31;5052997;28;20511;-52
2022/01/26 00:12:51;;;;;;;90.35;42.10;;;;;;;2.06;77.87;103276.16;5052958;28;20056;-52
2022/01/26 00:15:17;;;;;;;89.13;41.05;;;;;;;2.03;77.04;103271.91;5052713;28;20102;-54
2022/01/26 00:17:42;;;;;;;89.65;43.45;;;;;;;1.93;77.11;103279.53;5052910;28;20040;-55
2022/01/26 00:27:51;;;;;;;84.75;38.42;;;;;;;2.02;76.74;103272.13;5052413;28;20132;-54
2022/01/26 00:38:41;;;;;;;83.85;38.33;;;;;;;1.77;78.24;103258.72;5052777;28;20036;-56
2022/01/26 00:41:12;;;;;;;83.35;39.28;;;;;;;1.75;78.78;103246.31;5052316;28;20025;-56
2022/01/26 00:43:43;;;;;;;90.82;39.05;;;;;;;1.77;78.28;103255.16;5052677;28;20060;-56
2022/01/26 00:46:08;;;;;;;88.30;40.75;;;;;;;1.78;78.64;103263.16;5052525;28;20032;-56
2022/01/26 00:48:37;;;;;;;87.15;38.72;;;;;;;1.82;78.55;103259.03;5052230;28;20079;-56
2022/01/26 00:51:05;;;;;;;81.60;37.72;;;;;;;1.85;78.15;103253.16;5052333;28;20032;-55
2022/01/26 00:53:45;;;;;;;83.15;39.70;;;;;;;1.85;77.65;103263.25;5052057;28;20088;-56
2022/01/26 00:56:11;;;;;;;88.38;40.72;;;;;;;1.81;77.51;103270.13;5052571;28;20064;-55
2022/01/26 00:58:37;;;;;;;91.10;40.85;;;;;;;1.78;77.65;103265.06;5051956;28;20056;-56
2022/01/26 01:01:04;;;;;;;79.70;37.72;;;;;;;1.71;78.16;103245.84;5051415;28;20091;-53
2022/01/26 01:03:32;;;;;;;94.50;39.08;;;;;;;1.74;78.21;103256.38;5051931;28;20067;-55
2022/01/26 01:06:11;;;;;;;88.00;41.05;;;;;;;1.71;77.97;103263.03;5052356;28;20037;-55
2022/01/26 01:08:39;;;;;;;89.88;40.67;;;;;;;1.78;78.08;103263.16;5052843;28;20033;-55
2022/01/26 01:11:05;;;;;;;94.82;39.63;;;;;;;1.90;77.54;103254.50;5055659;28;20104;-56
2022/01/26 01:13:34;;;;;;;82.78;38.42;;;;;;;2.00;78.13;103255.91;5055640;28;20025;-57
2022/01/26 01:16:00;;;;;;;86.57;40.13;;;;;;;1.92;77.58;103253.28;5055987;28;20104;-56
2022/01/26 01:18:45;;;;;;;82.97;38.15;;;;;;;1.90;78.04;103238.13;5055120;28;20127;-55
2022/01/26 01:21:48;;;;;;;83.15;38.05;;;;;;;1.93;78.46;103235.84;5056015;28;20392;-57
2022/01/26 01:26:48;;;;;;;86.22;41.05;;;;;;;1.93;77.34;103245.94;5056181;28;20036;-56
2022/01/26 01:29:20;;;;;;;85.30;41.00;;;;;;;1.82;78.20;103234.47;5055661;28;20395;-55
2022/01/26 01:31:51;;;;;;;96.90;42.78;;;;;;;1.76;78.18;103229.72;5055702;28;20064;-56
2022/01/26 01:34:20;;;;;;;87.53;40.42;;;;;;;1.72;79.10;103209.34;5055800;28;20032;-57
2022/01/26 01:36:50;;;;;;;92.03;39.85;;;;;;;1.83;78.64;103213.47;5055840;28;20040;-55
2022/01/26 01:39:17;;;;;;;95.38;40.03;;;;;;;1.89;78.45;103211.84;5055382;28;20361;-56
2022/01/26 01:41:46;;;;;;;91.80;41.35;;;;;;;1.93;79.04;103218.66;5055476;28;20032;-55
2022/01/26 01:44:11;;;;;;;86.20;41.00;;;;;;;1.92;78.63;103220.50;5053968;28;20021;-54
2022/01/26 01:46:38;;;;;;;95.50;39.80;;;;;;;1.96;78.43;103219.13;5054951;28;20040;-55
2022/01/26 01:49:05;;;;;;;91.78;40.65;;;;;;;2.01;78.07;103221.28;5054295;28;20127;-52
2022/01/26 01:51:35;;;;;;;92.65;41.50;;;;;;;2.01;78.12;103218.53;5053432;28;20017;-54
2022/01/26 01:54:01;;;;;;;86.68;37.40;;;;;;;2.05;78.84;103221.75;5054632;28;20128;-55
2022/01/26 01:56:27;;;;;;;89.75;43.47;;;;;;;2.01;77.54;103230.28;5055381;28;20130;-53
2022/01/26 01:58:54;;;;;;;91.53;40.35;;;;;;;1.89;78.10;103206.41;5054734;28;20460;-55
2022/01/26 02:01:20;;;;;;;90.05;42.70;;;;;;;1.84;77.08;103221.44;5054673;28;20017;-53
2022/01/26 02:03:45;;;;;;;88.88;39.47;;;;;;;1.74;78.10;103226.38;5054096;28;20046;-53
2022/01/26 02:06:10;;;;;;;92.25;40.63;;;;;;;1.74;78.34;103212.72;5054747;28;20102;-53
2022/01/26 02:08:36;;;;;;;97.13;43.42;;;;;;;1.70;77.44;103205.94;5054518;28;20028;-55
2022/01/26 02:11:03;;;;;;;90.28;40.90;;;;;;;1.70;78.77;103208.66;5054629;28;20033;-55
2022/01/26 02:13:36;;;;;;;87.50;39.45;;;;;;;1.73;78.68;103191.94;5055271;28;20029;-55
2022/01/26 02:19:39;;;;;;;83.85;36.88;;;;;;;1.85;78.90;103201.31;5054600;28;20041;-55
2022/01/26 02:52:01;;;;;;;81.35;38.72;;;;;;;1.98;77.45;103173.38;5053914;28;20047;-53
2022/01/26 02:57:05;;;;;;;74.45;34.92;;;;;;;2.03;77.01;103159.97;5053990;28;20396;-54
2022/01/26 02:59:56;;;;;;;75.30;34.63;;;;;;;1.94;76.84;103155.66;5054243;28;20464;-55
2022/01/26 03:02:39;;;;;;;74.93;36.83;;;;;;;1.91;76.88;103147.00;5054076;28;20063;-56
2022/01/26 03:05:07;;;;;;;73.82;35.70;;;;;;;1.93;76.83;103161.31;5053910;28;20095;-54
2022/01/26 03:07:48;;;;;;;80.00;36.75;;;;;;;1.94;78.56;103169.31;5053745;28;20029;-54
2022/01/26 03:10:32;;;;;;;85.55;38.05;;;;;;;1.95;77.92;103160.09;5053704;28;20087;-54
2022/01/26 03:13:03;;;;;;;77.90;36.22;;;;;;;1.93;77.74;103145.78;5052807;28;20033;-52
2022/01/26 03:15:48;;;;;;;86.93;39.80;;;;;;;1.90;78.13;103145.31;5052912;28;20468;-54
2022/01/26 03:20:43;;;;;;;77.70;36.25;;;;;;;1.87;78.72;103147.38;5053185;28;20064;-55
2022/01/26 03:28:42;;;;;;;84.75;37.08;;;;;;;1.84;78.15;103155.94;5053630;28;20044;-55
2022/01/26 03:36:16;;;;;;;85.38;38.60;;;;;;;1.88;78.43;103142.78;5053208;28;20118;-54
2022/01/26 03:38:45;;;;;;;86.38;39.45;;;;;;;1.85;78.62;103145.88;5052695;28;20059;-54
2022/01/26 03:43:36;;;;;;;76.93;36.95;;;;;;;1.80;78.69;103154.66;5053258;28;20036;-55
2022/01/26 03:46:02;;;;;;;79.93;37.90;;;;;;;1.83;79.02;103169.78;5053088;28;20110;-56
2022/01/26 03:48:27;;;;;;;90.13;38.95;;;;;;;1.82;78.33;103157.19;5052957;28;20021;-55
2022/01/26 03:50:53;;;;;;;84.20;38.75;;;;;;;1.84;78.47;103138.72;5052738;28;20037;-55
2022/01/26 03:53:18;;;;;;;91.95;40.30;;;;;;;1.78;78.92;103140.34;5052240;28;20377;-54
2022/01/26 03:55:44;;;;;;;88.05;39.33;;;;;;;1.74;78.84;103127.25;5052764;28;20037;-54
2022/01/26 03:58:10;;;;;;;87.13;39.78;;;;;;;1.71;79.61;103136.69;5052709;28;20468;-55
2022/01/26 04:00:36;;;;;;;92.10;40.85;;;;;;;1.70;79.42;103145.91;5051547;28;20024;-58
2022/01/26 04:03:02;;;;;;;87.75;39.42;;;;;;;1.69;79.76;103136.88;5052233;28;20050;-51
2022/01/26 04:05:28;;;;;;;88.07;40.95;;;;;;;1.68;80.19;103140.63;5053059;28;20020;-53
2022/01/26 04:07:59;;;;;;;86.88;40.75;;;;;;;1.66;80.10;103139.13;5052657;28;20052;-54
2022/01/26 04:12:55;;;;;;;90.10;39.47;;;;;;;1.62;80.32;103129.63;5052753;28;20041;-54
2022/01/26 04:15:28;;;;;;;88.47;40.72;;;;;;;1.64;80.65;103122.13;5052784;28;20021;-55
2022/01/26 04:17:53;;;;;;;91.55;39.33;;;;;;;1.66;80.86;103120.88;5053093;28;20108;-55
2022/01/26 04:20:22;;;;;;;87.07;39.13;;;;;;;1.64;81.29;103124.84;5052808;28;20060;-55
2022/01/26 04:23:04;;;;;;;85.63;40.85;;;;;;;1.62;80.59;103126.91;5051391;28;20456;-55
2022/01/26 04:25:29;;;;;;;83.95;39.20;;;;;;;1.61;81.17;103126.03;5052397;28;20038;-54
2022/01/26 04:27:57;;;;;;;91.32;40.30;;;;;;;1.60;81.26;103138.03;5052546;28;20029;-53
2022/01/26 04:30:23;;;;;;;87.60;39.55;;;;;;;1.59;81.83;103141.78;5052349;28;20029;-55
2022/01/26 04:32:48;;;;;;;88.68;41.13;;;;;;;1.59;81.18;103149.09;5052807;28;20028;-54
2022/01/26 04:35:13;;;;;;;86.38;38.75;;;;;;;1.60;81.59;103157.13;5052529;28;20465;-53
2022/01/26 04:40:11;;;;;;;89.00;39.00;;;;;;;1.60;81.87;103165.31;5052627;28;20037;-53
2022/01/26 04:45:09;;;;;;;90.68;39.05;;;;;;;1.61;81.77;103177.06;5054869;28;20037;-55
2022/01/26 04:47:34;;;;;;;91.93;42.22;;;;;;;1.59;81.97;103173.66;5056559;28;20029;-55
2022/01/26 04:50:00;;;;;;;90.95;39.42;;;;;;;1.58;81.55;103178.28;5056560;28;20449;-55
2022/01/26 04:52:25;;;;;;;92.45;40.33;;;;;;;1.57;81.03;103179.31;5056118;28;20051;-55
2022/01/26 04:54:51;;;;;;;89.50;39.13;;;;;;;1.59;81.62;103171.78;5056379;28;20017;-54
2022/01/26 04:57:16;;;;;;;96.40;41.33;;;;;;;1.55;81.73;103174.06;5056623;28;20035;-54
2022/01/26 04:59:42;;;;;;;93.88;39.13;;;;;;;1.57;81.80;103179.31;5056776;28;20108;-54
2022/01/26 05:02:07;;;;;;;92.35;40.10;;;;;;;1.57;81.80;103179.31;5056306;28;20518;-51
2022/01/26 05:04:32;;;;;;;92.20;39.80;;;;;;;1.57;81.81;103162.94;5054499;28;20024;-53
2022/01/26 05:06:58;;;;;;;96.15;40.97;;;;;;;1.54;81.65;103149.66;5056544;28;20029;-54
2022/01/26 05:09:23;;;;;;;92.28;41.28;;;;;;;1.55;81.73;103144.03;5056258;28;20029;-54
2022/01/26 05:11:51;;;;;;;88.18;39.33;;;;;;;1.53;81.95;103162.47;5055031;28;20033;-55
2022/01/26 05:14:17;;;;;;;88.95;38.88;;;;;;;1.53;82.19;103162.47;5055949;28;20029;-54
2022/01/26 05:16:42;;;;;;;92.32;40.42;;;;;;;1.51;82.05;103152.78;5055156;28;20033;-52
2022/01/26 05:19:08;;;;;;;96.38;39.47;;;;;;;1.52;81.52;103146.28;5055285;28;20041;-55
2022/01/26 05:21:33;;;;;;;98.43;40.63;;;;;;;1.47;82.00;103130.47;5055610;28;20027;-55
2022/01/26 05:23:59;;;;;;;92.82;40.80;;;;;;;1.47;82.27;103129.63;5055421;28;20044;-55
2022/01/26 05:26:24;;;;;;;87.85;37.35;;;;;;;1.50;81.69;103121.09;5056018;28;20114;-55
2022/01/26 05:28:50;;;;;;;95.70;39.70;;;;;;;1.46;82.08;103123.34;5055576;28;20021;-55
2022/01/26 05:31:16;;;;;;;98.68;41.67;;;;;;;1.46;82.04;103120.63;5055159;28;20059;-55
2022/01/26 05:33:41;;;;;;;85.32;39.42;;;;;;;1.47;82.53;103121.47;5055403;28;20025;-55
2022/01/26 05:36:07;;;;;;;91.90;38.35;;;;;;;1.51;81.95;103128.25;5055311;28;20025;-55
2022/01/26 05:38:32;;;;;;;89.70;38.30;;;;;;;1.55;81.23;103130.41;5055079;28;20064;-55
2022/01/26 05:41:01;;;;;;;87.70;41.83;;;;;;;1.56;80.91;103131.22;5054910;28;20087;-53
2022/01/26 05:43:30;;;;;;;86.60;37.65;;;;;;;1.56;81.40;103123.03;5055928;28;20443;-54
2022/01/26 05:46:01;;;;;;;92.57;38.22;;;;;;;1.52;81.56;103125.31;5055430;28;20025;-54
2022/01/26 05:48:27;;;;;;;95.47;41.50;;;;;;;1.54;81.46;103119.66;5055094;28;20036;-51
2022/01/26 05:50:54;;;;;;;90.50;39.17;;;;;;;1.55;81.03;103127.66;5055500;28;20025;-53
2022/01/26 05:53:23;;;;;;;97.03;39.00;;;;;;;1.57;80.76;103127.47;5054385;28;20053;-54
2022/01/26 05:55:50;;;;;;;88.82;40.17;;;;;;;1.55;81.10;103124.06;5054844;28;20037;-52
2022/01/26 05:58:15;;;;;;;94.72;40.85;;;;;;;1.52;81.30;103114.41;5054857;28;20032;-55
2022/01/26 06:00:40;;;;;;;94.18;40.90;;;;;;;1.47;81.86;103121.47;5054798;28;20025;-55
2022/01/26 06:03:05;;;;;;;87.28;37.63;;;;;;;1.45;81.81;103118.06;5055452;28;20041;-53
2022/01/26 06:05:31;;;;;;;94.75;41.13;;;;;;;1.41;82.16;103103.97;5055426;28;20518;-55
2022/01/26 06:07:56;;;;;;;88.32;39.05;;;;;;;1.39;82.20;103111.47;5055231;28;20024;-54
2022/01/26 06:10:21;;;;;;;97.25;41.00;;;;;;;1.37;82.77;103113.56;5055005;28;20067;-54
2022/01/26 06:12:46;;;;;;;87.70;39.67;;;;;;;1.38;82.84;103118.81;5055258;28;20365;-54
2022/01/26 06:15:12;;;;;;;89.97;40.78;;;;;;;1.42;82.55;103130.19;5055272;28;20028;-55
2022/01/26 06:17:37;;;;;;;99.25;40.00;;;;;;;1.46;82.75;103139.72;5053870;28;20060;-55
2022/01/26 06:20:03;;;;;;;90.20;36.63;;;;;;;1.47;82.18;103143.28;5055055;28;20037;-55
2022/01/26 06:22:29;;;;;;;94.13;40.45;;;;;;;1.46;82.80;103133.41;5054235;28;20391;-55
2022/01/26 06:24:56;;;;;;;88.38;38.35;;;;;;;1.44;82.72;103109.03;5054994;28;20473;-54
2022/01/26 06:27:22;;;;;;;95.72;39.50;;;;;;;1.40;82.93;103100.41;5054662;28;20334;-55
2022/01/26 06:29:47;;;;;;;95.68;38.70;;;;;;;1.44;82.55;103110.91;5054973;28;20060;-53
2022/01/26 06:32:12;;;;;;;85.80;35.08;;;;;;;1.52;82.84;103116.25;5054626;28;20037;-55
2022/01/26 06:34:39;;;;;;;99.15;41.55;;;;;;;1.46;83.18;103108.84;5054522;28;20025;-52
2022/01/26 06:37:06;;;;;;;90.85;37.65;;;;;;;1.42;83.32;103108.38;5054504;28;20078;-53
2022/01/26 06:39:32;;;;;;;88.88;38.42;;;;;;;1.42;83.32;103121.19;5054328;28;20024;-55
2022/01/26 06:41:57;;;;;;;95.60;39.55;;;;;;;1.43;83.05;103114.66;5054810;28;20037;-52
2022/01/26 06:44:31;;;;;;;96.30;40.28;;;;;;;1.47;83.47;103116.00;5053220;28;20017;-54
2022/01/26 06:47:30;;;;;;;86.05;36.97;;;;;;;1.53;82.79;103126.16;5054519;28;20532;-55
2022/01/26 06:49:41;;;;;;;90.47;38.25;;;;;;;1.52;83.02;103125.31;5054262;28;20120;-55
2022/01/26 06:52:07;;;;;;;96.35;39.97;;;;;;;1.52;82.71;103129.91;5054251;28;20060;-54
2022/01/26 06:54:32;;;;;;;94.38;37.88;;;;;;;1.58;82.48;103117.38;5054574;28;20032;-56
2022/01/26 06:56:57;;;;;;;94.93;38.10;;;;;;;1.54;83.00;103122.38;5054464;28;20025;-56
2022/01/26 06:59:24;;;;;;;90.13;38.72;;;;;;;1.55;83.51;103122.22;5054270;28;20025;-55
2022/01/26 07:01:50;;;;;;;93.60;39.10;;;;;;;1.62;82.89;103129.63;5054225;28;20025;-56
2022/01/26 07:04:15;;;;;;;91.63;37.90;;;;;;;1.61;83.31;103125.22;5054528;28;20029;-57
2022/01/26 07:06:40;;;;;;;83.88;38.60;;;;;;;1.66;82.68;103125.47;5053333;28;20032;-56
2022/01/26 07:09:06;;;;;;;92.65;38.13;;;;;;;1.64;83.34;103113.94;5053771;28;20060;-56
2022/01/26 07:11:31;;;;;;;86.40;39.97;;;;;;;1.65;83.84;103119.19;5053988;28;20029;-56
2022/01/26 07:13:59;;;;;;;92.45;39.70;;;;;;;1.65;82.98;103121.91;5053839;28;20074;-57
2022/01/26 07:21:52;;;;;;;84.07;39.15;;;;;;;1.70;83.35;103135.81;5053313;28;19920;-56
2022/01/26 07:24:17;;;;;;;85.82;37.17;;;;;;;1.76;83.50;103156.03;5052329;28;20037;-57
2022/01/26 07:26:44;;;;;;;84.47;36.75;;;;;;;1.73;83.52;103147.41;5042584;28;20120;-55
2022/01/26 07:29:13;;;;;;;89.03;38.70;;;;;;;1.76;83.88;103138.84;5031598;28;20064;-54
2022/01/26 07:31:42;;;;;;;85.00;39.92;;;;;;;1.75;83.44;103145.31;5035449;28;20039;-53
2022/01/26 07:34:13;;;;;;;90.82;39.55;;;;;;;1.75;83.58;103148.91;5050743;28;20036;-56
2022/01/26 07:36:39;;;;;;;86.38;36.00;;;;;;;1.71;83.99;103142.97;5051284;28;20029;-53
2022/01/26 07:39:08;;;;;;;90.55;41.35;;;;;;;1.73;84.06;103144.66;5049361;28;20417;-53
2022/01/26 07:41:34;;;;;;;95.30;38.78;;;;;;;1.77;83.89;103133.19;5049090;28;20128;-54
2022/01/26 07:44:00;;;;;;;96.07;41.30;;;;;;;1.74;84.27;103130.00;5050169;28;20048;-54
2022/01/26 07:46:27;;;;;;;98.10;43.30;;;;;;;1.76;84.83;103134.22;5050130;28;20111;-56
2022/01/26 07:48:52;;;;;;;87.72;38.45;;;;;;;1.77;84.96;103133.19;5050401;28;20487;-55
2022/01/26 07:51:17;;;;;;;92.38;41.58;;;;;;;1.75;85.07;103137.97;5050874;28;20078;-55
2022/01/26 07:53:44;;;;;;;89.55;41.60;;;;;;;1.73;84.95;103134.63;5051119;28;20051;-53
2022/01/26 07:56:10;;;;;;;89.10;39.35;;;;;;;1.77;84.75;103149.56;5050720;28;20100;-56
2022/01/26 07:58:35;;;;;;;94.82;42.45;;;;;;;1.75;85.11;103158.97;5050653;28;20116;-54
2022/01/26 08:01:00;;;;;;;93.78;40.60;;;;;;;1.79;85.33;103165.75;5050644;28;20029;-55
2022/01/26 08:03:32;;;;;;;93.40;41.00;;;;;;;1.80;85.52;103167.44;5050721;28;20119;-54
2022/01/26 08:05:57;;;;;;;102.05;42.00;;;;;;;1.84;85.49;103168.75;5049164;28;20234;-50
2022/01/26 08:08:22;;;;;;;94.13;41.78;;;;;;;1.84;85.69;103168.75;5050709;28;20063;-56
2022/01/26 08:10:49;;;;;;;95.95;41.03;;;;;;;1.87;85.88;103157.47;5049826;28;20033;-56
2022/01/26 08:13:14;;;;;;;91.53;39.45;;;;;;;1.86;86.24;103163.97;5051562;28;20056;-56
2022/01/26 08:15:39;;;;;;;101.55;41.05;;;;;;;1.89;85.50;103169.00;5050655;28;20474;-54
2022/01/26 08:18:06;;;;;;;94.78;41.05;;;;;;;1.85;86.27;103176.75;5050641;28;20116;-56
2022/01/26 08:20:32;;;;;;;97.47;40.42;;;;;;;1.85;86.16;103178.63;5049653;28;20036;-57
2022/01/26 08:22:57;;;;;;;107.32;40.95;;;;;;;1.87;86.41;103171.13;5048770;28;20166;-55
2022/01/26 08:25:23;;;;;;;101.05;41.83;;;;;;;1.89;86.25;103160.00;5050503;28;20021;-55
2022/01/26 08:27:56;;;;;;;94.53;38.80;;;;;;;1.95;86.36;103160.09;5050447;28;20058;-55
2022/01/26 08:30:21;;;;;;;101.43;41.60;;;;;;;1.89;86.60;103163.56;5050487;28;20218;-55
2022/01/26 08:32:47;;;;;;;97.35;38.13;;;;;;;1.89;87.23;103171.75;5060262;28;20521;-56
2022/01/26 08:35:12;;;;;;;89.40;40.55;;;;;;;1.89;86.92;103165.44;5070497;28;20120;-56
2022/01/26 08:37:37;;;;;;;99.30;39.03;;;;;;;1.87;87.08;103163.75;5070935;28;20040;-57
2022/01/26 08:40:04;;;;;;;99.85;40.95;;;;;;;1.92;87.49;103165.09;5070900;28;20074;-56
2022/01/26 08:42:30;;;;;;;87.35;38.38;;;;;;;1.91;87.17;103171.56;5070374;28;20028;-56
2022/01/26 08:44:55;;;;;;;95.93;42.20;;;;;;;1.87;87.43;103169.22;5069108;28;20479;-54
2022/01/26 08:47:21;;;;;;;95.20;39.97;;;;;;;1.86;87.64;103172.97;5070465;28;20028;-55
2022/01/26 08:49:47;;;;;;;90.43;38.10;;;;;;;1.91;87.57;103168.84;5070392;28;20040;-57
2022/01/26 08:52:12;;;;;;;88.68;38.83;;;;;;;1.92;88.06;103185.03;5070117;28;20025;-56
2022/01/26 08:54:38;;;;;;;91.63;38.78;;;;;;;1.96;87.50;103180.03;5070219;28;20040;-55
2022/01/26 08:57:03;;;;;;;91.07;38.53;;;;;;;1.96;87.81;103182.75;5070184;28;20111;-56
2022/01/26 08:59:28;;;;;;;93.38;39.67;;;;;;;1.98;87.41;103169.78;5069288;28;20033;-56
2022/01/26 09:01:54;;;;;;;83.57;36.90;;;;;;;1.99;87.20;103169.56;5069216;28;20422;-54
2022/01/26 09:04:19;;;;;;;84.65;36.95;;;;;;;2.01;87.56;103167.50;5070318;28;20028;-56
2022/01/26 09:06:54;;;;;;;91.95;37.45;;;;;;;2.00;87.09;103156.78;5068262;28;20506;-56
2022/01/26 09:09:22;;;;;;;91.20;37.92;;;;;;;2.03;87.09;103159.13;5070616;28;20056;-58
2022/01/26 09:11:49;;;;;;;80.35;36.53;;;;;;;2.07;87.27;103165.06;5065667;28;20029;-55
2022/01/26 09:14:19;;;;;;;90.07;39.40;;;;;;;2.03;87.75;103164.59;5050109;28;20029;-55
2022/01/26 09:16:51;;;;;;;91.95;38.13;;;;;;;2.09;87.45;103179.34;5050171;28;20033;-57
2022/01/26 09:19:28;;;;;;;86.43;37.30;;;;;;;2.12;87.41;103168.03;5049980;28;20031;-57
2022/01/26 09:21:59;;;;;;;88.18;39.75;;;;;;;2.12;87.36;103174.38;5050252;28;20031;-55
2022/01/26 09:24:29;;;;;;;90.60;37.80;;;;;;;2.11;87.59;103175.41;5050039;28;20017;-55
2022/01/26 09:26:54;;;;;;;87.72;38.45;;;;;;;2.12;87.45;103184.44;5049841;28;20505;-53
2022/01/26 09:29:19;;;;;;;89.45;38.17;;;;;;;2.11;87.78;103171.81;5049830;28;20060;-56
2022/01/26 09:31:47;;;;;;;81.85;37.35;;;;;;;2.13;87.90;103180.66;5052464;28;20058;-56
2022/01/26 09:34:15;;;;;;;86.07;36.78;;;;;;;2.10;86.81;103181.03;5053533;28;20021;-55
2022/01/26 09:36:40;;;;;;;77.32;34.45;;;;;;;2.18;86.62;103184.50;5053387;28;20029;-55
2022/01/26 09:39:06;;;;;;;90.38;38.08;;;;;;;2.16;87.02;103169.38;5053406;28;20357;-54
2022/01/26 09:41:32;;;;;;;85.28;36.90;;;;;;;2.14;87.85;103168.72;5053246;28;20036;-56
2022/01/26 09:44:01;;;;;;;83.55;37.97;;;;;;;2.21;87.78;103157.88;5053498;28;20075;-56
2022/01/26 09:46:26;;;;;;;82.53;37.63;;;;;;;2.23;87.65;103166.69;5053331;28;20035;-56
2022/01/26 09:48:51;;;;;;;76.72;36.38;;;;;;;2.24;87.34;103161.06;5053192;28;20033;-56
2022/01/26 09:51:19;;;;;;;82.72;35.78;;;;;;;2.25;87.32;103157.28;5053465;28;20112;-57
2022/01/26 09:53:44;;;;;;;87.55;38.28;;;;;;;2.28;86.96;103156.06;5053325;28;20052;-56
2022/01/26 09:56:10;;;;;;;77.18;37.00;;;;;;;2.27;87.29;103155.19;5053645;28;20381;-56
2022/01/26 09:58:36;;;;;;;80.82;35.50;;;;;;;2.31;86.81;103156.50;5053006;28;20025;-57
2022/01/26 10:01:05;;;;;;;83.40;36.60;;;;;;;2.28;87.51;103145.94;5053048;28;20037;-54
2022/01/26 10:03:33;;;;;;;75.00;36.08;;;;;;;2.30;86.67;103145.78;5052984;28;20037;-56
2022/01/26 10:06:00;;;;;;;80.65;37.05;;;;;;;2.31;87.11;103150.22;5049894;28;20613;-57
2022/01/26 10:19:00;;;;;;;77.28;35.75;;;;;;;2.43;86.26;103154.09;5052744;28;20041;-57
2022/01/26 10:21:26;;;;;;;76.50;33.63;;;;;;;2.40;86.78;103143.56;5052559;28;20037;-56
2022/01/26 10:23:57;;;;;;;72.55;33.45;;;;;;;2.42;86.34;103138.75;5052687;28;20483;-60
2022/01/26 10:26:23;;;;;;;75.43;34.60;;;;;;;2.37;87.20;103134.91;5052447;28;20025;-56
2022/01/26 10:28:59;;;;;;;72.63;32.97;;;;;;;2.45;86.50;103132.91;5052746;28;20449;-57
2022/01/26 10:31:30;;;;;;;73.60;34.97;;;;;;;2.44;86.88;103141.31;5052544;28;20029;-56
2022/01/26 10:34:15;;;;;;;74.95;34.63;;;;;;;2.43;86.77;103156.84;5052467;28;20433;-57
2022/01/26 10:36:42;;;;;;;70.65;32.83;;;;;;;2.46;85.79;103175.56;5052521;28;20115;-57
2022/01/26 10:39:11;;;;;;;69.03;34.22;;;;;;;2.48;86.21;103184.44;5052567;28;20542;-56
2022/01/26 10:41:38;;;;;;;61.30;32.28;;;;;;;2.53;86.14;103202.13;5052504;28;20029;-57
2022/01/26 10:44:04;;;;;;;72.25;33.70;;;;;;;2.53;86.22;103194.78;5050466;28;20445;-56
2022/01/26 10:46:37;;;;;;;68.65;34.78;;;;;;;2.59;85.37;103199.47;5052129;28;20515;-56
2022/01/26 10:49:18;;;;;;;63.73;31.77;;;;;;;2.52;85.01;103190.34;5052229;28;20024;-57
2022/01/26 10:54:37;;;;;;;60.53;30.50;;;;;;;2.50;85.52;103171.41;5051955;28;20475;-55
2022/01/26 10:57:09;;;;;;;64.97;31.17;;;;;;;2.59;85.49;103187.69;5052067;28;20472;-57
2022/01/26 10:59:44;;;;;;;62.55;31.63;;;;;;;2.53;85.71;103152.94;5051869;28;20033;-56
2022/01/26 11:02:10;;;;;;;63.85;31.70;;;;;;;2.58;86.56;103180.53;5051961;28;20039;-56
2022/01/26 11:04:40;;;;;;;57.42;30.40;;;;;;;2.60;85.96;103184.75;5050567;28;20107;-55
2022/01/26 11:07:09;;;;;;;58.95;29.38;;;;;;;2.61;85.28;103180.13;5050325;28;20078;-56
2022/01/26 11:09:37;;;;;;;61.03;30.42;;;;;;;2.62;86.26;103174.47;5050719;28;20071;-56
2022/01/26 11:12:14;;;;;;;62.85;30.40;;;;;;;2.60;86.11;103170.22;5051815;28;20039;-56
2022/01/26 11:14:49;;;;;;;57.28;30.25;;;;;;;2.62;86.25;103181.81;5052117;28;20032;-57
2022/01/26 11:17:29;;;;;;;60.17;30.92;;;;;;;2.68;85.87;103170.13;5052041;28;20028;-57
2022/01/26 11:19:57;;;;;;;58.08;31.45;;;;;;;2.58;86.83;103147.75;5051878;28;20033;-57
2022/01/26 11:22:28;;;;;;;55.67;28.83;;;;;;;2.65;86.58;103162.31;5051842;28;20025;-55
2022/01/26 11:24:54;;;;;;;57.85;29.42;;;;;;;2.69;86.07;103166.34;5051761;28;20036;-55
2022/01/26 11:27:21;;;;;;;59.67;30.65;;;;;;;2.68;85.94;103169.25;5051722;28;20175;-55
2022/01/26 11:29:52;;;;;;;62.85;29.48;;;;;;;2.62;86.59;103149.88;5051898;28;20480;-56
2022/01/26 11:35:15;;;;;;;53.35;29.05;;;;;;;2.69;86.48;103154.56;5046424;28;20064;-54
2022/01/26 11:37:46;;;;;;;59.58;30.27;;;;;;;2.69;86.53;103146.38;5051343;28;20025;-56
2022/01/26 11:45:36;;;;;;;55.70;28.85;;;;;;;2.77;86.31;103143.50;5051034;28;20408;-56
2022/01/26 11:48:03;;;;;;;54.25;30.25;;;;;;;2.79;85.91;103138.66;5051070;28;20480;-55
2022/01/26 11:50:30;;;;;;;60.42;31.65;;;;;;;2.83;86.36;103133.66;5050971;28;20063;-55
2022/01/26 11:53:07;;;;;;;55.10;28.73;;;;;;;2.87;85.65;103127.59;5050935;28;20055;-57
2022/01/26 11:55:36;;;;;;;57.65;30.10;;;;;;;2.87;86.21;103121.28;5051453;28;20039;-56
2022/01/26 11:58:09;;;;;;;53.60;28.23;;;;;;;2.89;86.07;103120.03;5050763;28;20029;-55
2022/01/26 12:00:49;;;;;;;58.97;32.15;;;;;;;2.92;85.85;103122.41;5050782;28;20033;-57
2022/01/26 12:03:24;;;;;;;58.55;29.50;;;;;;;2.89;86.05;103109.09;5051083;28;20025;-56
2022/01/26 12:05:52;;;;;;;59.13;31.98;;;;;;;2.91;86.53;103112.50;5049059;28;20074;-58
2022/01/26 12:08:30;;;;;;;61.03;31.30;;;;;;;2.85;86.16;103099.59;5050712;28;20048;-57
2022/01/26 12:10:56;;;;;;;64.90;32.10;;;;;;;2.93;85.85;103117.75;5048967;28;20097;-55
2022/01/26 12:13:26;;;;;;;59.03;31.27;;;;;;;2.96;86.17;103104.53;5050227;28;20021;-56
2022/01/26 12:15:57;;;;;;;61.10;31.50;;;;;;;3.01;86.14;103103.94;5050592;28;20025;-54
2022/01/26 12:35:00;;;;;;;59.40;31.10;;;;;;;3.05;85.73;103107.09;5052929;28;20060;-56
2022/01/26 12:45:15;;;;;;;56.28;30.33;;;;;;;3.08;85.70;103129.44;5052785;28;20037;-58
2022/01/26 12:47:42;;;;;;;59.00;31.35;;;;;;;3.11;86.34;103125.47;5052216;28;20072;-56
2022/01/26 12:50:08;;;;;;;64.93;30.35;;;;;;;3.12;86.17;103119.78;5052084;28;20115;-56
2022/01/26 12:52:33;;;;;;;60.85;30.67;;;;;;;3.19;85.57;103113.50;5052572;28;20102;-55
2022/01/26 12:54:59;;;;;;;58.63;30.77;;;;;;;3.11;85.40;103120.84;5052452;28;20391;-56
2022/01/26 12:57:24;;;;;;;64.38;33.05;;;;;;;3.14;85.48;103108.63;5052267;28;20067;-56
2022/01/26 13:00:04;;;;;;;61.25;31.35;;;;;;;3.14;85.16;103103.16;5051996;28;20095;-55
2022/01/26 13:02:29;;;;;;;59.30;30.25;;;;;;;3.19;85.68;103094.38;5068534;28;20033;-55
2022/01/26 13:05:02;;;;;;;61.95;30.30;;;;;;;3.28;84.99;103091.28;5071904;28;20031;-56
2022/01/26 13:07:27;;;;;;;59.97;31.60;;;;;;;3.37;84.72;103083.72;5076286;28;20028;-55
2022/01/26 13:09:53;;;;;;;62.33;31.08;;;;;;;3.39;84.41;103087.13;5058182;28;20044;-56
2022/01/26 13:12:30;;;;;;;60.58;33.05;;;;;;;3.34;84.72;103081.44;5055902;28;20509;-56
2022/01/26 13:15:13;;;;;;;58.33;29.75;;;;;;;3.36;84.80;103073.84;5056278;28;20078;-56
2022/01/26 13:17:44;;;;;;;58.58;31.42;;;;;;;3.30;84.88;103088.34;5056266;28;20086;-54
2022/01/26 13:36:24;;;;;;;57.50;31.30;;;;;;;3.50;84.12;103065.69;5055818;28;20029;-55
2022/01/26 13:39:02;;;;;;;66.28;32.13;;;;;;;3.48;84.39;103070.53;5055776;28;20032;-55
2022/01/26 13:41:43;;;;;;;67.72;34.13;;;;;;;3.48;84.49;103065.06;5054727;28;20480;-55
2022/01/26 13:44:33;;;;;;;61.65;30.48;;;;;;;3.43;84.06;103060.19;5053696;28;20434;-54
2022/01/26 13:47:17;;;;;;;64.20;32.15;;;;;;;3.37;84.60;103066.50;5053762;28;20353;-55
2022/01/26 13:55:18;;;;;;;63.03;31.73;;;;;;;3.48;83.59;103062.31;5033196;28;20111;-53
2022/01/26 13:58:19;;;;;;;68.38;33.45;;;;;;;3.45;84.42;103057.28;5032159;28;20536;-54